createdAt,value
2023-03-29T00:01:34.780Z,93.44
2023-03-29T00:04:04.004Z,93.63
2023-03-29T00:06:33.431Z,92.13
2023-03-29T00:09:05.864Z,91.52
2023-03-29T00:11:33.200Z,93.23
2023-03-29T00:14:00.307Z,91.82
2023-03-29T00:16:27.175Z,91.00
2023-03-29T00:18:54.128Z,89.60
2023-03-29T00:21:21.144Z,90.65
2023-03-29T00:23:47.995Z,91.28
2023-03-29T00:26:16.549Z,89.79
2023-03-29T00:28:43.479Z,90.01
2023-03-29T00:31:12.705Z,90.82
2023-03-29T00:33:40.189Z,91.28
2023-03-29T00:36:08.682Z,90.25
2023-03-29T00:38:36.117Z,90.41
2023-03-29T00:41:04.279Z,89.30
2023-03-29T00:43:51.710Z,90.31
2023-03-29T00:46:18.739Z,88.98
2023-03-29T00:48:46.663Z,89.52
2023-03-29T00:51:16.583Z,90.50
2023-03-29T00:53:48.656Z,88.65
2023-03-29T00:56:20.316Z,89.45
2023-03-29T00:58:54.859Z,88.69
2023-03-29T01:12:25.851Z,87.76
2023-03-29T01:14:59.070Z,87.17
2023-03-29T01:17:26.157Z,88.19
2023-03-29T01:19:59.786Z,87.33
2023-03-29T01:22:38.914Z,87.30
2023-03-29T01:28:37.481Z,87.18
2023-03-29T01:31:50.235Z,87.73
2023-03-29T01:34:40.404Z,88.74
2023-03-29T01:37:26.352Z,87.90
2023-03-29T01:40:05.356Z,87.71
2023-03-29T01:42:42.797Z,88.65
2023-03-29T01:45:29.057Z,88.68
2023-03-29T01:48:04.584Z,88.00
2023-03-29T01:50:47.806Z,87.64
2023-03-29T01:53:59.276Z,89.08
2023-03-29T01:56:31.203Z,89.67
2023-03-29T01:59:02.294Z,89.79
2023-03-29T02:01:34.656Z,89.76
2023-03-29T02:04:15.140Z,90.60
2023-03-29T02:06:43.407Z,92.45
2023-03-29T02:09:10.594Z,91.98
2023-03-29T02:11:42.012Z,90.19
2023-03-29T02:14:10.102Z,89.07
2023-03-29T02:16:41.326Z,89.77
2023-03-29T02:19:10.759Z,91.38
2023-03-29T02:21:48.315Z,90.60
2023-03-29T02:24:25.207Z,90.30
2023-03-29T02:26:52.708Z,92.00
2023-03-29T02:29:19.836Z,92.70
2023-03-29T02:32:16.960Z,93.30
2023-03-29T02:35:06.985Z,92.09
2023-03-29T02:37:36.610Z,91.80
2023-03-29T02:40:33.216Z,92.45
2023-03-29T02:43:02.979Z,92.56
2023-03-29T02:46:39.733Z,92.78
2023-03-29T02:49:11.738Z,92.40
2023-03-29T02:51:48.923Z,92.24
2023-03-29T02:54:33.824Z,93.10
2023-03-29T02:57:26.837Z,93.84
2023-03-29T03:00:02.202Z,92.93
2023-03-29T03:02:35.969Z,93.38
2023-03-29T03:05:21.756Z,92.74
2023-03-29T03:08:00.754Z,93.49
2023-03-29T03:10:32.508Z,94.53
2023-03-29T03:13:10.333Z,95.08
2023-03-29T03:15:48.652Z,95.97
2023-03-29T03:18:16.930Z,94.87
2023-03-29T03:20:55.349Z,95.62
2023-03-29T03:23:25.106Z,96.53
2023-03-29T03:25:52.814Z,96.65
2023-03-29T03:28:20.156Z,97.34
2023-03-29T03:30:47.133Z,97.93
2023-03-29T03:33:14.089Z,98.58
2023-03-29T03:35:41.581Z,97.90
2023-03-29T03:38:10.922Z,97.12
2023-03-29T03:40:38.464Z,98.55
2023-03-29T03:43:13.993Z,98.04
2023-03-29T03:45:43.050Z,98.11
2023-03-29T03:48:10.015Z,98.15
2023-03-29T03:50:38.328Z,97.41
2023-03-29T03:53:05.331Z,97.80
2023-03-29T03:55:34.572Z,97.92
2023-03-29T03:58:01.941Z,97.93
2023-03-29T04:00:29.756Z,97.20
2023-03-29T04:02:56.761Z,96.48
2023-03-29T04:05:23.866Z,98.12
2023-03-29T04:07:51.039Z,98.34
2023-03-29T04:10:18.276Z,99.67
2023-03-29T04:12:46.638Z,99.16
2023-03-29T04:15:13.701Z,99.99
2023-03-29T04:17:41.030Z,99.80
2023-03-29T04:20:12.778Z,100.00
2023-03-29T04:22:40.379Z,100.00
2023-03-29T04:25:08.681Z,100.00
2023-03-29T04:27:36.352Z,100.00
2023-03-29T04:30:05.794Z,100.00
2023-03-29T04:32:32.879Z,99.88
2023-03-29T04:34:59.916Z,98.81
2023-03-29T04:37:27.946Z,100.00
2023-03-29T04:39:54.859Z,99.27
2023-03-29T04:42:21.754Z,99.35
2023-03-29T04:44:49.032Z,100.00
2023-03-29T04:47:30.111Z,99.44
2023-03-29T04:49:57.271Z,100.00
2023-03-29T04:52:24.564Z,100.00
2023-03-29T04:54:51.634Z,100.00
2023-03-29T04:57:18.685Z,100.00
2023-03-29T04:59:45.662Z,99.74
2023-03-29T05:02:12.654Z,100.00
2023-03-29T05:05:09.243Z,100.00
2023-03-29T05:07:36.353Z,100.00
2023-03-29T05:10:03.468Z,100.00
2023-03-29T05:12:30.828Z,99.64
2023-03-29T05:14:58.644Z,99.86
2023-03-29T05:17:27.577Z,99.34
2023-03-29T05:19:55.043Z,99.46
2023-03-29T05:22:38.133Z,99.39
2023-03-29T05:25:06.061Z,99.42
2023-03-29T05:27:33.549Z,100.00
2023-03-29T05:30:01.282Z,100.00
2023-03-29T05:32:28.598Z,100.00
2023-03-29T05:34:55.586Z,100.00
2023-03-29T05:37:23.900Z,100.00
2023-03-29T05:39:50.741Z,100.00
2023-03-29T05:42:22.368Z,100.00
2023-03-29T05:44:49.388Z,100.00
2023-03-29T06:18:35.495Z,100.00
2023-03-29T06:21:03.127Z,100.00
2023-03-29T06:23:30.889Z,100.00
2023-03-29T06:25:58.184Z,100.00
2023-03-29T06:28:25.237Z,100.00
2023-03-29T06:30:54.165Z,100.00
2023-03-29T06:33:21.500Z,100.00
2023-03-29T06:35:50.348Z,100.00
2023-03-29T06:38:17.874Z,100.00
2023-03-29T06:40:45.473Z,100.00
2023-03-29T06:43:13.001Z,100.00
2023-03-29T06:45:40.672Z,100.00
2023-03-29T06:48:08.484Z,100.00
2023-03-29T06:50:36.160Z,100.00
2023-03-29T06:56:11.851Z,100.00
2023-03-29T06:58:39.318Z,100.00
2023-03-29T07:01:07.553Z,100.00
2023-03-29T07:03:36.190Z,100.00
2023-03-29T07:06:09.912Z,100.00
2023-03-29T07:08:43.944Z,100.00
2023-03-29T07:11:13.235Z,100.00
2023-03-29T07:13:42.721Z,100.00
2023-03-29T07:16:13.971Z,100.00
2023-03-29T07:18:43.013Z,100.00
2023-03-29T07:21:12.489Z,100.00
2023-03-29T07:23:41.170Z,100.00
2023-03-29T07:26:08.730Z,100.00
2023-03-29T07:28:37.658Z,100.00
2023-03-29T07:31:06.977Z,100.00
2023-03-29T07:33:34.753Z,100.00
2023-03-29T07:36:02.494Z,100.00
2023-03-29T07:38:29.984Z,100.00
2023-03-29T07:40:58.714Z,100.00
2023-03-29T07:43:25.920Z,98.13
2023-03-29T07:45:53.219Z,98.07
2023-03-29T07:48:20.395Z,99.38
2023-03-29T07:50:56.906Z,100.00
2023-03-29T07:53:24.427Z,100.00
2023-03-29T07:55:52.706Z,100.00
2023-03-29T07:58:21.958Z,100.00
2023-03-29T08:00:49.399Z,100.00
2023-03-29T08:03:17.272Z,100.00
2023-03-29T08:05:45.219Z,100.00
2023-03-29T08:08:12.484Z,100.00
2023-03-29T08:10:39.760Z,99.36
2023-03-29T08:13:09.275Z,98.82
2023-03-29T08:15:40.086Z,100.00
2023-03-29T08:18:08.032Z,100.00
2023-03-29T08:20:35.374Z,97.73
2023-03-29T08:23:02.600Z,98.35
2023-03-29T08:25:30.476Z,99.55
2023-03-29T08:27:57.963Z,98.92
2023-03-29T08:30:25.948Z,96.83
2023-03-29T08:32:55.508Z,98.35
2023-03-29T08:35:23.162Z,95.63
2023-03-29T08:37:50.383Z,97.85
2023-03-29T08:40:24.229Z,97.12
2023-03-29T08:43:07.404Z,97.94
2023-03-29T08:45:39.441Z,98.48
2023-03-29T08:48:22.214Z,97.09
2023-03-29T08:50:54.714Z,97.60
2023-03-29T08:53:27.647Z,98.67
2023-03-29T08:55:57.525Z,96.99
2023-03-29T08:58:29.290Z,96.88
2023-03-29T09:00:58.578Z,92.61
2023-03-29T09:03:32.476Z,91.58
2023-03-29T09:06:03.648Z,92.76
2023-03-29T09:08:31.197Z,92.29
2023-03-29T09:11:16.778Z,93.96
2023-03-29T09:13:55.096Z,94.98
2023-03-29T09:16:30.358Z,95.17
2023-03-29T09:19:16.534Z,94.83
2023-03-29T09:21:49.775Z,95.61
2023-03-29T09:24:32.586Z,92.61
2023-03-29T09:27:04.135Z,93.04
2023-03-29T09:29:55.226Z,91.96
2023-03-29T09:32:32.029Z,91.09
2023-03-29T09:35:14.306Z,89.47
2023-03-29T09:37:41.913Z,88.51
2023-03-29T09:40:15.878Z,87.21
2023-03-29T09:42:44.987Z,90.85
2023-03-29T09:45:12.184Z,91.26
2023-03-29T09:47:43.819Z,90.51
2023-03-29T09:50:29.627Z,91.40
2023-03-29T09:52:58.567Z,91.73
2023-03-29T09:55:28.856Z,92.00
2023-03-29T09:57:59.183Z,92.48
2023-03-29T10:00:26.694Z,89.99
2023-03-29T10:02:57.168Z,89.83
2023-03-29T10:05:29.708Z,89.54
2023-03-29T10:08:01.333Z,88.86
2023-03-29T10:10:30.156Z,88.27
2023-03-29T10:13:01.147Z,90.82
2023-03-29T10:15:30.322Z,92.53
2023-03-29T10:17:59.935Z,90.77
2023-03-29T10:20:28.519Z,90.62
2023-03-29T10:22:57.956Z,90.86
2023-03-29T10:25:28.959Z,89.60
2023-03-29T10:28:03.890Z,89.16
2023-03-29T10:30:35.101Z,87.79
2023-03-29T10:33:02.536Z,86.80
2023-03-29T10:35:35.095Z,88.21
2023-03-29T10:38:07.920Z,90.23
2023-03-29T10:40:41.515Z,86.46
2023-03-29T10:43:14.660Z,84.64
2023-03-29T10:45:42.524Z,86.24
2023-03-29T10:48:13.786Z,83.64
2023-03-29T10:50:43.035Z,84.86
2023-03-29T10:53:18.172Z,82.83
2023-03-29T10:55:55.507Z,81.93
2023-03-29T10:58:42.591Z,85.12
2023-03-29T11:01:22.402Z,85.22
2023-03-29T11:04:16.115Z,87.17
2023-03-29T11:06:54.788Z,84.21
2023-03-29T11:09:36.431Z,83.58
2023-03-29T11:12:16.103Z,83.58
2023-03-29T11:15:00.576Z,84.19
2023-03-29T11:17:33.931Z,85.44
2023-03-29T11:20:12.652Z,84.48
2023-03-29T11:23:33.673Z,84.29
2023-03-29T11:26:11.876Z,82.09
2023-03-29T11:28:48.823Z,82.11
2023-03-29T11:31:24.828Z,80.87
2023-03-29T11:34:01.899Z,80.22
2023-03-29T11:36:39.101Z,80.92
2023-03-29T11:39:15.649Z,79.33
2023-03-29T11:41:46.726Z,79.58
2023-03-29T11:44:18.206Z,78.74
2023-03-29T11:46:52.925Z,77.58
2023-03-29T11:49:25.307Z,78.88
2023-03-29T11:51:57.069Z,78.91
2023-03-29T11:54:32.148Z,79.12
2023-03-29T11:57:05.851Z,77.77
2023-03-29T11:59:37.941Z,80.11
2023-03-29T12:02:14.850Z,81.22
2023-03-29T12:04:47.544Z,79.88
2023-03-29T12:07:17.964Z,80.80
2023-03-29T12:09:51.096Z,76.81
2023-03-29T12:12:23.429Z,79.00
2023-03-29T12:15:00.207Z,78.82
2023-03-29T12:17:36.854Z,82.55
2023-03-29T12:20:12.004Z,81.67
2023-03-29T12:22:40.193Z,80.95
2023-03-29T12:25:18.473Z,80.12
2023-03-29T12:27:58.413Z,80.52
2023-03-29T12:30:47.113Z,81.65
2023-03-29T12:33:34.319Z,82.03
2023-03-29T12:36:19.476Z,80.96
2023-03-29T12:38:48.261Z,82.50
2023-03-29T12:41:20.098Z,82.41
2023-03-29T12:43:48.323Z,81.58
2023-03-29T12:46:18.572Z,81.98
2023-03-29T12:48:47.858Z,81.06
2023-03-29T12:51:17.355Z,81.30
2023-03-29T12:53:47.446Z,80.48
2023-03-29T12:56:17.865Z,82.00
2023-03-29T12:58:55.617Z,81.01
2023-03-29T13:01:27.596Z,82.88
2023-03-29T13:04:17.622Z,82.27
2023-03-29T13:07:06.123Z,83.46
2023-03-29T13:09:46.965Z,82.91
2023-03-29T13:12:24.348Z,82.68
2023-03-29T13:14:54.467Z,81.12
2023-03-29T13:17:42.886Z,83.79
2023-03-29T13:20:28.755Z,82.81
2023-03-29T13:23:09.674Z,85.81
2023-03-29T13:25:52.550Z,86.18
2023-03-29T13:28:30.449Z,86.92
2023-03-29T13:31:01.882Z,89.35
2023-03-29T13:33:57.444Z,90.20
2023-03-29T13:36:40.510Z,88.72
2023-03-29T13:39:15.504Z,89.44
2023-03-29T13:41:51.521Z,90.60
2023-03-29T13:44:29.963Z,92.31
2023-03-29T13:47:12.682Z,94.59
2023-03-29T13:49:43.312Z,90.75
2023-03-29T13:52:18.973Z,93.30
2023-03-29T13:54:54.063Z,93.04
2023-03-29T13:57:25.233Z,94.05
2023-03-29T13:59:59.567Z,92.66
2023-03-29T14:02:37.117Z,93.04
2023-03-29T14:05:07.745Z,95.96
2023-03-29T14:07:39.456Z,93.78
2023-03-29T14:10:07.993Z,95.00
2023-03-29T14:12:41.195Z,94.57
2023-03-29T14:15:23.915Z,93.06
2023-03-29T14:18:00.329Z,92.98
2023-03-29T14:20:30.385Z,94.77
2023-03-29T14:22:57.642Z,94.57
2023-03-29T14:25:25.626Z,94.39
2023-03-29T14:27:52.817Z,92.92
2023-03-29T14:30:25.916Z,95.70
2023-03-29T14:32:53.189Z,94.59
2023-03-29T14:35:27.336Z,93.29
2023-03-29T14:37:54.604Z,92.66
2023-03-29T14:40:22.060Z,93.50
2023-03-29T15:11:19.702Z,95.08
2023-03-29T15:13:47.902Z,94.79
2023-03-29T15:16:17.047Z,94.83
2023-03-29T15:18:45.520Z,94.57
2023-03-29T15:21:15.082Z,95.64
2023-03-29T15:23:48.197Z,95.22
2023-03-29T15:26:22.380Z,94.50
2023-03-29T15:28:55.611Z,96.86
2023-03-29T15:31:26.798Z,96.20
2023-03-29T15:34:04.358Z,96.01
2023-03-29T15:36:33.064Z,96.07
2023-03-29T15:39:01.579Z,93.70
2023-03-29T15:41:30.212Z,94.78
2023-03-29T15:43:57.708Z,95.85
2023-03-29T15:46:24.749Z,96.63
2023-03-29T15:48:51.727Z,96.29
2023-03-29T15:51:18.862Z,98.25
2023-03-29T15:53:46.247Z,98.30
2023-03-29T15:56:18.237Z,98.82
2023-03-29T15:58:47.585Z,99.71
2023-03-29T16:01:34.457Z,100.00
2023-03-29T16:04:02.193Z,100.00
2023-03-29T16:06:29.204Z,100.00
2023-03-29T16:08:57.481Z,100.00
2023-03-29T16:11:24.896Z,100.00
2023-03-29T16:13:53.531Z,99.47
2023-03-29T16:16:21.969Z,99.58
2023-03-29T16:18:49.252Z,99.35
2023-03-29T16:21:19.575Z,100.00
2023-03-29T16:23:48.288Z,100.00
2023-03-29T16:26:17.121Z,100.00
2023-03-29T16:28:44.347Z,100.00
2023-03-29T16:31:14.035Z,100.00
2023-03-29T16:33:41.712Z,100.00
2023-03-29T16:36:09.923Z,100.00
2023-03-29T16:38:37.258Z,100.00
2023-03-29T16:41:07.854Z,100.00
2023-03-29T16:43:38.608Z,100.00
2023-03-29T16:46:07.536Z,100.00
2023-03-29T16:48:37.172Z,100.00
2023-03-29T16:51:05.640Z,100.00
2023-03-29T16:53:32.737Z,100.00
2023-03-29T16:56:00.105Z,100.00
2023-03-29T16:58:30.191Z,100.00
2023-03-29T17:00:57.780Z,100.00
2023-03-29T17:03:24.961Z,100.00
2023-03-29T17:05:54.596Z,100.00
2023-03-29T17:08:22.183Z,100.00
2023-03-29T17:10:53.390Z,100.00
2023-03-29T17:13:24.039Z,100.00
2023-03-29T17:15:52.988Z,100.00
2023-03-29T17:18:20.414Z,100.00
2023-03-29T17:20:48.135Z,100.00
2023-03-29T17:23:16.669Z,98.94
2023-03-29T17:25:44.970Z,98.82
2023-03-29T17:28:12.093Z,98.65
2023-03-29T17:30:39.936Z,97.98
2023-03-29T17:33:08.191Z,98.75
2023-03-29T17:35:35.954Z,99.41
2023-03-29T17:38:06.358Z,97.58
2023-03-29T17:41:49.986Z,98.42
2023-03-29T17:45:03.215Z,99.02
2023-03-29T18:34:16.140Z,100.00
2023-03-29T18:37:09.745Z,100.00
2023-03-29T18:39:36.960Z,100.00
2023-03-29T18:42:05.643Z,100.00
2023-03-29T18:44:33.528Z,100.00
2023-03-29T18:47:01.189Z,100.00
2023-03-29T18:49:30.078Z,100.00
2023-03-29T18:51:57.772Z,100.00
2023-03-29T18:54:24.970Z,100.00
2023-03-29T18:56:54.358Z,100.00
2023-03-29T18:59:22.414Z,100.00
2023-03-29T19:01:50.221Z,100.00
2023-03-29T19:04:19.911Z,100.00
2023-03-29T19:06:49.432Z,100.00
2023-03-29T19:09:17.348Z,100.00
2023-03-29T19:11:48.055Z,100.00
2023-03-29T19:14:23.502Z,100.00
2023-03-29T19:16:52.337Z,100.00
2023-03-29T19:19:19.893Z,100.00
2023-03-29T19:21:49.714Z,100.00
2023-03-29T19:24:16.988Z,100.00
2023-03-29T19:26:48.064Z,100.00
2023-03-29T19:29:15.258Z,100.00
2023-03-29T19:31:43.818Z,100.00
2023-03-29T19:34:11.823Z,100.00
2023-03-29T19:36:39.720Z,100.00
2023-03-29T19:39:08.357Z,100.00
2023-03-29T19:41:35.510Z,100.00
2023-03-29T19:44:05.379Z,100.00
2023-03-29T19:46:36.242Z,100.00
2023-03-29T19:49:05.563Z,100.00
2023-03-29T19:51:32.845Z,100.00
2023-03-29T19:53:59.947Z,100.00
2023-03-29T19:56:28.708Z,100.00
2023-03-29T19:58:55.885Z,100.00
2023-03-29T20:01:27.243Z,100.00
2023-03-29T20:03:54.436Z,99.29
2023-03-29T20:06:21.674Z,99.40
2023-03-29T20:08:48.844Z,98.34
2023-03-29T20:11:16.771Z,97.01
2023-03-29T20:13:46.016Z,95.42
2023-03-29T20:16:16.348Z,95.91
2023-03-29T20:18:46.724Z,94.48
2023-03-29T20:21:16.849Z,95.00
2023-03-29T20:23:44.543Z,94.04
2023-03-29T20:26:11.763Z,93.39
2023-03-29T20:28:39.077Z,92.20
2023-03-29T20:31:10.879Z,92.61
2023-03-29T20:33:38.311Z,91.10
2023-03-29T20:36:06.648Z,90.31
2023-03-29T20:38:33.981Z,90.07
2023-03-29T20:41:01.435Z,90.83
2023-03-29T20:43:29.886Z,90.71
2023-03-29T20:45:57.137Z,90.08
2023-03-29T20:48:31.434Z,90.17
2023-03-29T20:50:58.516Z,89.29
2023-03-29T20:53:30.142Z,89.25
2023-03-29T20:55:57.249Z,89.15
2023-03-29T20:58:27.340Z,88.00
2023-03-29T21:00:54.298Z,89.43
2023-03-29T21:03:21.503Z,88.80
2023-03-29T21:05:54.097Z,89.18
2023-03-29T21:08:21.208Z,88.48
2023-03-29T21:10:48.300Z,89.83
2023-03-29T21:13:15.376Z,89.30
2023-03-29T21:15:43.830Z,89.80
2023-03-29T21:18:11.101Z,90.33
2023-03-29T21:20:38.446Z,89.99
2023-03-29T21:23:06.973Z,90.30
2023-03-29T21:25:34.325Z,91.12
2023-03-29T21:28:01.434Z,90.52
2023-03-29T21:30:30.102Z,90.17
2023-03-29T21:32:59.225Z,89.99
2023-03-29T21:35:26.521Z,90.37
2023-03-29T21:37:53.495Z,90.03
2023-03-29T21:40:22.150Z,89.58
2023-03-29T21:42:49.617Z,89.36
2023-03-29T21:45:17.127Z,88.94
2023-03-29T21:47:44.526Z,89.91
2023-03-29T21:50:12.017Z,88.61
2023-03-29T21:52:39.389Z,88.31
2023-03-29T21:55:07.407Z,87.77
2023-03-29T21:57:38.401Z,86.90
2023-03-29T22:00:11.382Z,86.99
2023-03-29T22:02:39.088Z,86.45
2023-03-29T22:05:07.964Z,85.31
2023-03-29T22:07:38.801Z,83.79
2023-03-29T22:10:07.183Z,83.49
2023-03-29T22:12:37.731Z,81.02
2023-03-29T22:15:06.410Z,80.74
2023-03-29T22:17:35.339Z,78.60
2023-03-29T22:20:02.960Z,77.55
2023-03-29T22:22:31.943Z,76.91
2023-03-29T22:25:00.124Z,76.02
2023-03-29T22:27:27.585Z,74.32
2023-03-29T22:29:56.211Z,74.91
2023-03-29T22:32:24.552Z,73.49
2023-03-29T22:34:52.398Z,73.25
2023-03-29T22:37:19.704Z,72.30
2023-03-29T22:39:47.040Z,72.49
2023-03-29T22:42:14.474Z,71.85
2023-03-29T22:44:42.760Z,71.30
2023-03-29T22:47:12.711Z,70.52
2023-03-29T22:49:40.180Z,70.15
2023-03-29T22:52:08.726Z,70.54
2023-03-29T22:54:36.062Z,71.85
2023-03-29T22:57:03.768Z,72.10
2023-03-29T22:59:31.619Z,72.08
2023-03-29T23:01:58.959Z,72.58
2023-03-29T23:04:27.909Z,73.91
2023-03-29T23:06:55.084Z,73.72
2023-03-29T23:09:29.418Z,73.86
2023-03-29T23:11:56.567Z,73.12
2023-03-29T23:14:23.821Z,74.54
2023-03-29T23:16:50.878Z,74.89
2023-03-29T23:19:17.858Z,75.79
2023-03-29T23:21:46.882Z,75.46
2023-03-29T23:24:18.865Z,77.21
2023-03-29T23:26:49.114Z,76.85
2023-03-29T23:29:16.179Z,78.03
2023-03-29T23:31:44.538Z,77.50
2023-03-29T23:34:13.574Z,78.90
2023-03-29T23:36:40.832Z,80.21
2023-03-29T23:39:10.024Z,80.60
2023-03-29T23:41:40.558Z,80.48
2023-03-29T23:44:08.008Z,81.11
2023-03-29T23:46:35.346Z,83.91
2023-03-29T23:49:02.592Z,85.02
2023-03-29T23:51:29.713Z,86.26
2023-03-29T23:53:57.290Z,86.65
2023-03-29T23:56:25.887Z,85.76
2023-03-29T23:58:53.045Z,86.36
